Time;durP1;ratioP1;P1;durP2;ratioP2;P2;SDS_P1;SDS_P2;PMS_P1;PMS_P2;Temp;Humidity;BMP_temperature;BMP_pressure;BME280_temperature;BME280_humidity;BME280_pressure;Samples;Min_cycle;Max_cycle;Signal;HPM_P1;HPM_P2
2023/05/12 00:01:11;;;;;;;6.90;3.80;;;;;;;11.49;38.51;100713.79;103079;1260;111052;-66
2023/05/12 00:03:39;;;;;;;10.50;4.00;;;;;;;11.45;38.55;100717.17;102940;1260;138357;-66
2023/05/12 00:06:07;;;;;;;7.90;3.90;;;;;;;11.42;38.66;100715.90;103074;1260;97834;-66
2023/05/12 00:08:34;;;;;;;7.50;4.40;;;;;;;11.38;38.77;100719.13;102997;1259;138065;-66
2023/05/12 00:11:02;;;;;;;8.30;4.10;;;;;;;11.35;38.82;100723.23;103011;1260;97812;-66
2023/05/12 00:13:29;;;;;;;7.70;4.20;;;;;;;11.32;39.01;100724.38;103094;1257;111794;-65
2023/05/12 00:15:57;;;;;;;8.70;4.00;;;;;;;11.28;38.98;100728.46;103209;1251;137873;-65
2023/05/12 00:18:27;;;;;;;8.60;3.50;;;;;;;11.25;39.00;100723.67;104077;1254;97876;-66
2023/05/12 00:20:54;;;;;;;8.80;4.10;;;;;;;11.22;38.93;100723.05;103437;1256;137726;-66
2023/05/12 00:23:31;;;;;;;6.70;4.30;;;;;;;11.19;39.08;100719.83;103520;1253;97796;-66
2023/05/12 00:25:58;;;;;;;8.30;3.90;;;;;;;11.16;39.11;100726.52;103417;1254;138286;-66
2023/05/12 00:28:25;;;;;;;7.90;3.90;;;;;;;11.14;39.06;100723.99;103486;1254;108346;-66
2023/05/12 00:30:52;;;;;;;8.40;4.00;;;;;;;11.11;39.03;100722.81;103436;1254;98088;-66
2023/05/12 00:33:19;;;;;;;9.10;4.10;;;;;;;11.09;39.15;100724.97;103436;1254;137586;-65
2023/05/12 00:35:46;;;;;;;6.60;4.30;;;;;;;11.08;39.16;100727.63;103768;1256;97926;-66
2023/05/12 00:38:17;;;;;;;6.50;3.80;;;;;;;11.06;39.19;100724.90;103416;1253;137806;-66
2023/05/12 00:40:44;;;;;;;7.30;4.10;;;;;;;11.03;39.33;100730.19;103538;1253;107512;-66
2023/05/12 00:43:11;;;;;;;11.10;4.30;;;;;;;11.01;39.23;100729.91;103478;1257;97862;-66
2023/05/12 00:45:39;;;;;;;7.90;4.10;;;;;;;11.00;39.31;100730.12;103418;1254;137975;-65
2023/05/12 00:48:07;;;;;;;9.90;3.90;;;;;;;10.98;39.28;100725.45;103813;1253;97680;-67
2023/05/12 00:50:35;;;;;;;7.00;3.70;;;;;;;10.97;39.40;100734.20;103678;1254;137652;-66
2023/05/12 00:53:04;;;;;;;8.20;3.70;;;;;;;10.95;39.28;100735.61;103443;1254;109151;-67
2023/05/12 00:55:31;;;;;;;9.40;4.20;;;;;;;10.94;39.34;100738.61;103561;1254;97784;-66
2023/05/12 00:57:58;;;;;;;7.90;3.90;;;;;;;10.91;39.53;100741.29;103473;1253;137494;-65
2023/05/12 01:00:27;;;;;;;8.50;3.80;;;;;;;10.89;39.43;100738.38;103570;1253;97773;-66
2023/05/12 01:02:57;;;;;;;7.90;4.30;;;;;;;10.86;39.61;100740.70;103594;1251;137590;-65
2023/05/12 01:05:30;;;;;;;13.60;3.70;;;;;;;10.84;39.44;100741.97;103581;1251;108239;-65
2023/05/12 01:08:00;;;;;;;7.00;3.60;;;;;;;10.82;39.64;100742.55;103655;1256;138110;-65
2023/05/12 01:10:27;;;;;;;11.70;4.00;;;;;;;10.79;39.68;100742.11;103536;1251;107860;-68
2023/05/12 01:12:54;;;;;;;5.20;3.70;;;;;;;10.78;39.62;100745.63;103871;1251;97758;-66
2023/05/12 01:15:25;;;;;;;7.70;3.70;;;;;;;10.74;39.59;100743.27;103517;1251;137857;-65
2023/05/12 01:17:57;;;;;;;8.20;4.30;;;;;;;10.72;39.71;100748.70;103486;1251;108731;-65
2023/05/12 01:20:27;;;;;;;7.10;4.00;;;;;;;10.68;39.91;100748.30;103433;1251;137967;-67
2023/05/12 01:22:55;;;;;;;8.20;3.90;;;;;;;10.66;39.93;100748.37;103910;1255;105910;-65
2023/05/12 01:25:26;;;;;;;6.20;3.60;;;;;;;10.65;40.04;100754.83;103484;1251;97810;-65
2023/05/12 01:28:04;;;;;;;9.10;4.40;;;;;;;10.62;40.08;100753.33;104206;1251;137520;-66
2023/05/12 01:30:33;;;;;;;9.00;3.70;;;;;;;10.59;40.05;100756.15;104720;1251;108010;-66
2023/05/12 01:33:01;;;;;;;7.20;3.60;;;;;;;10.57;40.04;100756.54;104275;1251;137998;-66
2023/05/12 01:35:28;;;;;;;7.60;3.80;;;;;;;10.55;40.17;100756.77;103553;1251;108592;-66
2023/05/12 01:37:58;;;;;;;5.40;3.70;;;;;;;10.53;40.31;100750.23;103461;1251;138137;-66
2023/05/12 01:40:26;;;;;;;6.90;3.70;;;;;;;10.51;40.48;100757.06;103561;1251;110635;-65
2023/05/12 01:42:56;;;;;;;7.90;3.80;;;;;;;10.48;40.52;100754.00;103543;1254;107376;-66
2023/05/12 01:45:26;;;;;;;10.70;4.20;;;;;;;10.45;40.34;100754.60;104062;1251;137965;-65
2023/05/12 01:47:53;;;;;;;11.60;4.00;;;;;;;10.44;40.48;100753.59;103480;1251;107689;-66
2023/05/12 01:50:20;;;;;;;8.50;4.00;;;;;;;10.41;40.60;100754.34;103386;1251;138200;-66
2023/05/12 01:52:48;;;;;;;8.10;3.70;;;;;;;10.39;40.67;100756.13;103693;1251;111284;-66
2023/05/12 01:55:17;;;;;;;5.40;3.80;;;;;;;10.37;40.78;100757.91;103552;1251;106875;-66
2023/05/12 01:57:50;;;;;;;6.00;3.50;;;;;;;10.34;40.92;100761.98;103458;1251;137790;-66
2023/05/12 02:00:19;;;;;;;6.70;3.60;;;;;;;10.30;40.87;100756.34;103659;1251;107907;-66
2023/05/12 02:02:49;;;;;;;9.50;4.00;;;;;;;10.29;40.97;100758.43;103630;1251;137970;-66
2023/05/12 02:05:17;;;;;;;9.10;3.80;;;;;;;10.27;40.93;100757.46;103502;1251;111664;-66
2023/05/12 02:07:46;;;;;;;12.30;4.40;;;;;;;10.26;41.02;100763.90;103390;1250;137956;-66
2023/05/12 02:10:14;;;;;;;6.90;4.00;;;;;;;10.24;40.99;100755.45;103532;1251;97783;-66
2023/05/12 02:12:41;;;;;;;7.40;3.80;;;;;;;10.21;41.05;100755.82;103455;1256;108551;-66
2023/05/12 02:15:10;;;;;;;5.00;3.80;;;;;;;10.19;41.04;100753.58;103419;1251;138083;-66
2023/05/12 02:17:40;;;;;;;5.90;3.70;;;;;;;10.17;41.04;100752.59;103847;1251;111466;-66
2023/05/12 02:20:11;;;;;;;8.70;3.70;;;;;;;10.15;41.17;100756.27;103356;1251;138566;-66
2023/05/12 02:22:38;;;;;;;10.30;3.60;;;;;;;10.13;41.36;100758.05;103642;1251;97768;-66
2023/05/12 02:25:09;;;;;;;6.00;3.60;;;;;;;10.10;41.23;100760.92;103484;1255;108000;-66
2023/05/12 02:27:37;;;;;;;7.10;3.70;;;;;;;10.09;41.33;100763.20;103501;1251;138447;-66
2023/05/12 02:30:05;;;;;;;7.90;3.90;;;;;;;10.07;41.27;100761.00;103548;1251;112182;-66
2023/05/12 02:32:35;;;;;;;15.60;4.10;;;;;;;10.05;41.36;100763.98;103591;1252;137890;-65
2023/05/12 02:35:08;;;;;;;9.40;4.40;;;;;;;10.03;41.33;100765.41;103569;1251;97749;-66
2023/05/12 02:37:38;;;;;;;7.40;4.00;;;;;;;10.01;41.51;100769.61;103855;1251;107127;-66
2023/05/12 02:40:11;;;;;;;7.70;4.40;;;;;;;10.00;41.52;100770.34;103546;1251;97882;-66
2023/05/12 02:42:42;;;;;;;6.00;4.00;;;;;;;9.98;41.62;100772.13;103653;1251;111345;-65
2023/05/12 02:45:23;;;;;;;9.70;4.30;;;;;;;9.97;41.62;100773.52;103395;1253;137735;-65
2023/05/12 02:47:50;;;;;;;8.00;3.50;;;;;;;9.97;41.72;100777.17;103565;1251;98347;-65
2023/05/12 02:50:21;;;;;;;8.90;3.80;;;;;;;9.96;41.71;100774.95;103451;1250;137665;-66
2023/05/12 02:52:51;;;;;;;7.50;3.70;;;;;;;9.95;41.69;100778.09;103797;1251;97774;-65
2023/05/12 02:55:19;;;;;;;5.60;3.40;;;;;;;9.95;41.82;100776.89;103610;1251;111440;-66
2023/05/12 02:57:48;;;;;;;9.10;4.50;;;;;;;9.94;41.76;100777.42;103453;1250;137615;-66
2023/05/12 03:00:16;;;;;;;12.00;4.20;;;;;;;9.93;41.77;100780.55;103600;1250;97812;-66
2023/05/12 03:02:44;;;;;;;6.70;3.80;;;;;;;9.94;41.84;100780.90;104059;1256;137954;-66
2023/05/12 03:05:15;;;;;;;5.60;3.80;;;;;;;9.95;41.86;100782.45;103530;1256;97775;-66
2023/05/12 03:07:45;;;;;;;6.10;3.80;;;;;;;9.96;41.79;100781.72;103572;1253;111448;-66
2023/05/12 03:10:12;;;;;;;8.90;4.00;;;;;;;9.97;41.83;100782.23;103529;1251;108514;-66
2023/05/12 03:12:40;;;;;;;10.10;4.10;;;;;;;9.98;41.84;100783.06;103569;1250;97774;-66
2023/05/12 03:15:11;;;;;;;7.90;3.90;;;;;;;9.98;41.78;100783.04;103559;1250;137670;-66
2023/05/12 03:17:42;;;;;;;5.90;3.80;;;;;;;9.99;41.73;100782.34;103893;1255;97761;-66
2023/05/12 03:20:11;;;;;;;8.30;3.70;;;;;;;10.01;41.82;100784.55;103462;1250;137809;-66
2023/05/12 03:22:42;;;;;;;6.20;3.90;;;;;;;10.03;41.77;100783.14;103562;1250;107805;-66
2023/05/12 03:25:11;;;;;;;5.00;3.40;;;;;;;10.03;41.74;100783.64;103554;1250;97857;-66
2023/05/12 03:27:38;;;;;;;9.80;4.30;;;;;;;10.04;41.79;100784.48;103863;1252;138433;-66
2023/05/12 03:30:10;;;;;;;9.90;4.10;;;;;;;10.07;41.89;100790.36;103521;1250;98109;-66
2023/05/12 03:32:39;;;;;;;6.50;4.10;;;;;;;10.08;41.84;100790.86;103523;1255;138516;-65
2023/05/12 03:35:09;;;;;;;9.40;3.80;;;;;;;10.10;41.72;100784.56;103871;1257;106435;-66
2023/05/12 03:37:36;;;;;;;5.70;3.50;;;;;;;10.11;41.72;100791.13;103934;1250;99489;-66
2023/05/12 03:40:05;;;;;;;6.40;3.80;;;;;;;10.13;41.63;100794.73;103380;1251;137492;-68
2023/05/12 03:42:32;;;;;;;9.00;4.10;;;;;;;10.16;41.61;100793.45;104005;1251;97876;-65
2023/05/12 03:45:01;;;;;;;9.60;4.30;;;;;;;10.19;41.71;100800.16;103486;1250;137635;-66
2023/05/12 03:47:28;;;;;;;6.20;3.90;;;;;;;10.21;41.65;100798.58;103546;1251;107579;-66
2023/05/12 03:49:57;;;;;;;6.40;3.60;;;;;;;10.23;41.54;100800.46;103291;1253;138222;-66
2023/05/12 03:52:24;;;;;;;5.10;3.60;;;;;;;10.25;41.63;100799.91;104243;1251;107210;-66
2023/05/12 03:54:52;;;;;;;10.70;3.70;;;;;;;10.27;41.59;100805.59;103615;1250;97762;-66
2023/05/12 03:57:19;;;;;;;5.40;3.80;;;;;;;10.31;41.43;100801.33;103496;1256;137781;-66
2023/05/12 03:59:46;;;;;;;5.50;3.90;;;;;;;10.34;41.44;100803.52;103512;1250;108700;-66
2023/05/12 04:02:23;;;;;;;7.90;3.80;;;;;;;10.37;41.47;100808.50;103437;1255;138044;-66
2023/05/12 04:04:53;;;;;;;9.00;3.80;;;;;;;10.38;41.34;100810.39;103535;1251;108185;-66
2023/05/12 04:07:20;;;;;;;6.20;3.50;;;;;;;10.41;41.44;100812.23;103489;1257;97718;-66
2023/05/12 04:09:47;;;;;;;9.40;3.60;;;;;;;10.42;41.30;100814.81;103420;1251;137740;-66
2023/05/12 04:12:15;;;;;;;10.60;4.00;;;;;;;10.45;41.38;100812.32;103536;1250;107648;-65
2023/05/12 04:15:03;;;;;;;7.70;4.00;;;;;;;10.49;41.32;100816.58;103420;1251;138190;-66
2023/05/12 04:17:30;;;;;;;8.60;4.20;;;;;;;10.51;41.27;100817.38;103581;1251;108114;-66
2023/05/12 04:19:57;;;;;;;11.80;3.60;;;;;;;10.54;41.22;100817.84;103415;1251;138012;-66
2023/05/12 04:22:26;;;;;;;5.60;3.90;;;;;;;10.59;41.31;100823.64;103876;1253;110826;-66
2023/05/12 04:24:53;;;;;;;9.20;4.40;;;;;;;10.61;41.23;100824.30;103524;1255;107636;-66
2023/05/12 04:27:24;;;;;;;5.10;3.50;;;;;;;10.63;41.19;100822.51;103457;1250;137934;-66
2023/05/12 04:29:51;;;;;;;11.90;4.20;;;;;;;10.67;41.16;100823.98;103436;1256;108089;-66
2023/05/12 04:32:21;;;;;;;8.40;3.90;;;;;;;10.72;41.07;100824.89;103418;1253;138846;-67
2023/05/12 04:34:48;;;;;;;9.40;3.50;;;;;;;10.78;41.26;100829.30;103562;1251;112126;-66
2023/05/12 04:37:16;;;;;;;11.40;4.00;;;;;;;10.82;41.12;100824.13;103387;1253;107232;-66
2023/05/12 04:39:46;;;;;;;6.20;3.90;;;;;;;10.88;41.06;100828.17;103443;1251;138601;-66
2023/05/12 04:42:16;;;;;;;8.70;3.70;;;;;;;10.96;40.99;100828.34;103479;1254;107684;-66
2023/05/12 04:44:46;;;;;;;9.50;4.30;;;;;;;11.05;41.00;100831.75;103340;1251;137850;-67
2023/05/12 04:47:16;;;;;;;7.50;3.80;;;;;;;11.16;40.84;100831.67;103543;1251;112107;-66
2023/05/12 04:49:44;;;;;;;10.40;4.00;;;;;;;11.28;40.79;100831.52;103532;1250;107424;-66
2023/05/12 04:52:13;;;;;;;7.40;3.60;;;;;;;11.39;40.58;100835.75;103433;1251;97794;-66
2023/05/12 04:54:40;;;;;;;9.50;3.70;;;;;;;11.50;40.48;100831.48;103629;1256;108659;-66
2023/05/12 04:57:09;;;;;;;11.60;3.90;;;;;;;11.64;40.41;100833.70;103290;1251;138550;-66
2023/05/12 04:59:36;;;;;;;8.20;3.40;;;;;;;11.79;40.27;100836.09;103527;1256;113519;-67
2023/05/12 05:02:07;;;;;;;7.40;3.20;;;;;;;11.93;39.96;100839.20;103341;1251;138020;-66
2023/05/12 05:04:34;;;;;;;6.50;3.90;;;;;;;12.05;39.76;100838.86;103542;1251;98192;-66
2023/05/12 05:07:04;;;;;;;6.10;3.80;;;;;;;12.21;39.71;100836.30;103537;1251;107850;-67
2023/05/12 05:09:32;;;;;;;6.10;3.70;;;;;;;12.40;39.55;100839.92;103492;1250;137830;-67
2023/05/12 05:12:02;;;;;;;5.40;3.60;;;;;;;12.83;39.38;100842.94;103530;1251;114375;-66
2023/05/12 05:14:29;;;;;;;10.10;3.60;;;;;;;14.16;38.36;100841.62;103411;1250;137991;-65
2023/05/12 05:16:59;;;;;;;8.20;3.60;;;;;;;16.11;35.88;100835.66;103590;1250;97863;-67
2023/05/12 05:19:26;;;;;;;6.50;3.10;;;;;;;17.80;33.47;100833.89;103524;1256;109182;-67
2023/05/12 05:22:13;;;;;;;7.50;3.20;;;;;;;19.52;31.69;100827.69;103579;1250;97787;-67
2023/05/12 05:24:40;;;;;;;11.50;3.10;;;;;;;21.14;30.86;100825.55;103622;1251;112021;-67
2023/05/12 05:27:07;;;;;;;9.50;3.10;;;;;;;22.74;28.42;100821.79;103450;1255;137937;-68
2023/05/12 05:29:35;;;;;;;12.80;3.50;;;;;;;24.01;27.81;100817.76;103462;1250;98893;-68
2023/05/12 05:32:03;;;;;;;11.30;3.10;;;;;;;25.44;25.97;100816.96;103554;1250;137900;-68
2023/05/12 05:34:30;;;;;;;9.40;3.20;;;;;;;26.49;24.94;100810.86;104287;1250;97589;-68
2023/05/12 05:36:58;;;;;;;8.10;3.20;;;;;;;27.56;24.17;100811.55;103523;1250;109899;-68
2023/05/12 05:39:25;;;;;;;6.90;2.80;;;;;;;28.58;22.67;100815.60;103401;1254;137983;-69
2023/05/12 05:41:51;;;;;;;12.50;3.10;;;;;;;29.13;21.34;100816.48;103499;1251;97795;-68
2023/05/12 05:44:18;;;;;;;9.90;3.80;;;;;;;29.60;20.36;100813.29;103375;1250;138445;-68
2023/05/12 05:46:46;;;;;;;11.20;3.20;;;;;;;29.85;19.32;100815.02;103343;1256;97976;-68
2023/05/12 05:49:13;;;;;;;11.00;3.30;;;;;;;29.98;19.12;100814.34;103455;1250;111581;-67
2023/05/12 05:51:40;;;;;;;11.10;3.80;;;;;;;30.23;18.70;100820.38;103319;1256;137936;-68
2023/05/12 05:54:07;;;;;;;11.90;3.20;;;;;;;30.45;18.68;100818.00;103435;1255;97788;-68
2023/05/12 05:56:34;;;;;;;9.90;3.00;;;;;;;30.93;18.55;100821.95;103253;1257;137804;-68
2023/05/12 05:59:03;;;;;;;7.20;2.90;;;;;;;31.13;16.77;100824.40;103461;1256;98549;-68
2023/05/12 06:01:30;;;;;;;6.90;2.80;;;;;;;30.47;16.81;100821.88;103418;1256;110675;-68
2023/05/12 06:03:57;;;;;;;9.20;3.20;;;;;;;30.45;17.59;100829.47;102976;1253;266195;-68
2023/05/12 06:06:24;;;;;;;10.80;3.00;;;;;;;30.87;17.68;100828.91;103358;1250;97819;-68
2023/05/12 06:08:52;;;;;;;8.10;3.10;;;;;;;31.54;17.53;100831.59;103326;1255;137976;-68
2023/05/12 06:11:20;;;;;;;7.60;2.90;;;;;;;32.14;16.89;100827.55;103464;1250;97912;-68
2023/05/12 06:13:47;;;;;;;7.50;3.00;;;;;;;32.32;16.23;100830.48;103497;1250;110445;-67
2023/05/12 06:16:14;;;;;;;6.00;2.70;;;;;;;32.20;15.88;100835.16;103540;1250;99513;-67
2023/05/12 06:18:41;;;;;;;8.50;2.60;;;;;;;32.04;15.96;100837.45;103749;1250;97816;-67
2023/05/12 06:21:08;;;;;;;12.90;3.10;;;;;;;31.91;16.05;100837.19;103423;1250;137747;-67
2023/05/12 06:23:35;;;;;;;11.90;2.70;;;;;;;31.98;15.95;100836.23;104062;1250;97951;-66
2023/05/12 06:26:02;;;;;;;7.30;2.90;;;;;;;32.36;16.01;100832.41;103489;1250;138509;-67
2023/05/12 06:28:30;;;;;;;12.90;2.90;;;;;;;32.78;15.83;100833.45;103825;1250;107284;-67
2023/05/12 06:30:58;;;;;;;4.80;2.50;;;;;;;32.97;15.63;100841.10;103485;1255;97794;-67
2023/05/12 06:33:25;;;;;;;9.40;2.90;;;;;;;32.97;15.50;100839.89;103402;1255;137598;-68
2023/05/12 06:35:52;;;;;;;5.20;2.30;;;;;;;33.09;15.34;100837.77;103528;1250;97809;-68
2023/05/12 06:38:19;;;;;;;4.60;2.70;;;;;;;33.33;15.17;100838.83;103468;1251;137851;-68
2023/05/12 06:40:46;;;;;;;8.70;2.60;;;;;;;33.17;14.60;100845.02;103536;1250;108253;-68
2023/05/12 06:43:13;;;;;;;8.90;3.10;;;;;;;32.72;14.96;100837.95;103509;1256;97768;-67
2023/05/12 06:45:44;;;;;;;9.10;2.60;;;;;;;32.71;14.75;100841.67;104081;1250;137640;-68
2023/05/12 06:48:11;;;;;;;3.50;2.20;;;;;;;32.61;15.00;100837.36;103663;1250;97782;-67
2023/05/12 06:50:39;;;;;;;4.80;2.80;;;;;;;32.47;14.55;100844.02;103478;1250;137639;-68
2023/05/12 06:53:06;;;;;;;7.10;2.40;;;;;;;32.30;15.14;100839.95;103492;1250;107709;-67
2023/05/12 06:55:33;;;;;;;9.90;3.00;;;;;;;32.37;15.22;100839.51;103563;1251;97850;-67
2023/05/12 06:58:01;;;;;;;5.00;2.50;;;;;;;32.59;15.47;100841.30;103376;1255;137635;-68
2023/05/12 07:00:28;;;;;;;8.80;2.60;;;;;;;33.04;15.01;100840.02;103503;1250;97727;-67
2023/05/12 07:02:55;;;;;;;6.70;2.50;;;;;;;32.86;14.46;100842.05;103443;1251;137632;-67
2023/05/12 07:05:22;;;;;;;4.70;2.30;;;;;;;32.06;14.39;100841.67;103552;1251;108210;-67
2023/05/12 07:07:50;;;;;;;7.30;2.60;;;;;;;31.39;15.17;100842.11;103532;1255;97614;-68
2023/05/12 07:10:16;;;;;;;8.40;2.40;;;;;;;31.39;15.61;100841.73;103410;1250;107816;-68
2023/05/12 07:12:44;;;;;;;6.70;2.40;;;;;;;31.36;15.43;100844.81;103467;1250;97765;-68
2023/05/12 07:15:12;;;;;;;9.10;2.50;;;;;;;31.19;15.54;100848.98;103413;1251;137601;-67
2023/05/12 07:17:39;;;;;;;6.60;2.20;;;;;;;31.11;15.68;100842.23;103727;1253;107889;-68
2023/05/12 07:20:10;;;;;;;7.10;2.60;;;;;;;31.24;15.95;100844.15;103455;1250;137996;-67
2023/05/12 07:22:37;;;;;;;8.40;2.50;;;;;;;31.55;15.99;100839.55;103686;1250;107711;-68
2023/05/12 07:25:06;;;;;;;5.00;2.10;;;;;;;31.74;15.25;100842.89;103527;1255;97870;-68
2023/05/12 07:27:33;;;;;;;7.20;2.10;;;;;;;31.07;15.34;100853.08;104208;1250;138278;-68
2023/05/12 07:30:00;;;;;;;6.50;2.30;;;;;;;30.58;15.77;100845.66;103531;1250;108961;-68
2023/05/12 07:32:27;;;;;;;4.20;2.10;;;;;;;30.26;15.59;100850.55;103492;1255;138036;-67
2023/05/12 07:34:55;;;;;;;4.60;2.30;;;;;;;29.71;16.00;100858.25;103534;1250;107857;-69
2023/05/12 07:37:21;;;;;;;9.50;2.20;;;;;;;29.46;16.37;100845.95;103498;1251;97765;-69
2023/05/12 07:39:48;;;;;;;13.30;2.50;;;;;;;29.67;16.64;100845.45;103508;1250;138211;-69
2023/05/12 07:42:15;;;;;;;7.50;1.90;;;;;;;30.14;16.53;100839.04;103524;1250;106503;-68
2023/05/12 07:44:42;;;;;;;6.60;2.20;;;;;;;30.46;15.80;100840.91;103518;1250;137813;-67
2023/05/12 07:47:09;;;;;;;4.60;2.00;;;;;;;29.96;15.26;100853.90;103493;1255;107132;-68
2023/05/12 07:49:36;;;;;;;6.90;2.00;;;;;;;29.54;15.74;100850.95;103488;1255;97784;-68
2023/05/12 07:52:04;;;;;;;8.80;2.30;;;;;;;29.54;15.99;100850.37;103466;1255;137688;-68
2023/05/12 07:54:32;;;;;;;7.60;2.10;;;;;;;29.86;16.29;100846.85;103519;1250;107252;-68
2023/05/12 07:56:59;;;;;;;6.50;1.90;;;;;;;30.36;15.96;100844.81;103838;1250;137886;-68
2023/05/12 07:59:26;;;;;;;6.10;2.20;;;;;;;30.46;15.26;100849.27;103389;1253;108247;-68
2023/05/12 08:01:53;;;;;;;7.90;2.40;;;;;;;29.69;15.32;100852.41;103476;1251;97673;-68
2023/05/12 08:04:20;;;;;;;4.00;2.20;;;;;;;28.74;16.04;100861.60;103511;1255;110053;-68
2023/05/12 08:06:47;;;;;;;4.40;2.20;;;;;;;28.52;16.41;100850.91;103438;1250;107166;-68
2023/05/12 08:09:14;;;;;;;6.50;2.30;;;;;;;28.40;16.56;100847.45;103395;1251;137915;-68
2023/05/12 08:11:41;;;;;;;8.90;2.50;;;;;;;28.01;16.25;100858.90;103528;1250;108012;-68
2023/05/12 08:14:12;;;;;;;4.60;2.00;;;;;;;27.68;16.30;100852.06;103397;1255;141903;-68
2023/05/12 08:16:39;;;;;;;9.40;2.50;;;;;;;27.47;16.05;100861.27;103443;1250;111078;-68
2023/05/12 08:19:06;;;;;;;4.10;2.40;;;;;;;27.26;16.50;100872.70;103524;1250;107954;-69
2023/05/12 08:21:34;;;;;;;11.30;2.30;;;;;;;26.98;16.75;100871.88;103354;1250;137791;-68
2023/05/12 08:24:01;;;;;;;15.70;2.80;;;;;;;26.78;17.10;100856.77;103498;1255;107416;-68
2023/05/12 08:26:27;;;;;;;13.40;2.50;;;;;;;26.55;17.13;100848.50;103347;1255;138492;-69
2023/05/12 08:28:56;;;;;;;17.90;2.40;;;;;;;26.17;17.01;100871.13;103483;1250;110954;-68
2023/05/12 08:31:23;;;;;;;12.30;2.90;;;;;;;25.88;16.88;100869.54;103537;1250;107586;-68
2023/05/12 08:33:51;;;;;;;10.20;2.40;;;;;;;25.78;17.08;100857.05;103338;1250;137918;-68
2023/05/12 08:36:36;;;;;;;6.80;2.40;;;;;;;25.89;16.85;100843.79;103451;1250;106962;-68
2023/05/12 08:39:03;;;;;;;10.80;2.60;;;;;;;25.88;16.51;100850.11;103385;1250;137754;-68
2023/05/12 08:41:41;;;;;;;10.10;2.50;;;;;;;25.80;16.31;100863.11;103510;1250;110965;-68
2023/05/12 08:44:09;;;;;;;9.10;2.30;;;;;;;25.94;15.93;100856.40;103321;1250;138134;-68
2023/05/12 08:46:37;;;;;;;6.80;2.10;;;;;;;26.12;16.15;100855.73;103498;1255;98032;-68
2023/05/12 08:49:06;;;;;;;10.30;2.10;;;;;;;26.22;15.89;100858.55;103576;1250;107801;-68
2023/05/12 08:51:36;;;;;;;8.00;2.20;;;;;;;25.98;16.11;100854.41;103414;1255;138025;-68
2023/05/12 08:54:07;;;;;;;9.30;2.00;;;;;;;25.95;16.35;100857.76;103527;1255;110964;-68
2023/05/12 08:56:35;;;;;;;14.60;2.30;;;;;;;25.91;16.63;100848.97;103426;1250;138410;-68
2023/05/12 08:59:08;;;;;;;5.90;2.40;;;;;;;25.85;16.87;100845.02;103453;1250;99060;-67
2023/05/12 09:01:41;;;;;;;7.70;2.10;;;;;;;25.76;16.09;100855.62;103462;1251;108029;-67
2023/05/12 09:04:09;;;;;;;9.90;2.30;;;;;;;25.26;16.66;100863.39;103835;1251;137607;-68
2023/05/12 09:06:37;;;;;;;12.80;2.60;;;;;;;24.84;17.05;100855.72;103630;1250;112054;-67
2023/05/12 09:09:04;;;;;;;11.10;3.10;;;;;;;24.56;17.42;100856.76;103998;1250;138205;-67
2023/05/12 09:11:31;;;;;;;5.60;2.30;;;;;;;24.38;17.54;100852.64;103598;1250;97778;-67
2023/05/12 09:14:03;;;;;;;7.00;2.40;;;;;;;24.38;17.86;100847.88;103429;1255;137832;-68
2023/05/12 09:16:33;;;;;;;12.20;2.20;;;;;;;24.49;17.69;100854.11;103542;1251;97784;-67
2023/05/12 09:19:02;;;;;;;11.20;2.80;;;;;;;24.41;17.44;100846.73;103654;1251;111097;-68
2023/05/12 09:21:33;;;;;;;11.70;2.10;;;;;;;24.23;17.44;100849.05;103439;1250;137981;-67
2023/05/12 09:24:04;;;;;;;7.90;2.70;;;;;;;24.12;17.83;100841.61;103572;1250;97877;-67
2023/05/12 09:26:32;;;;;;;4.30;2.10;;;;;;;24.36;17.54;100837.34;103469;1250;137897;-68
2023/05/12 09:29:07;;;;;;;8.80;2.30;;;;;;;24.53;17.66;100836.19;103482;1250;97796;-69
2023/05/12 09:31:34;;;;;;;8.00;2.20;;;;;;;24.69;17.22;100845.36;103430;1250;111923;-67
2023/05/12 09:34:06;;;;;;;9.20;2.50;;;;;;;24.35;17.11;100858.42;103421;1256;137836;-68
2023/05/12 09:36:35;;;;;;;7.40;2.30;;;;;;;23.96;17.43;100851.18;103497;1250;97659;-67
2023/05/12 09:39:06;;;;;;;6.90;2.20;;;;;;;23.87;17.75;100850.82;103349;1250;138433;-68
2023/05/12 09:41:37;;;;;;;9.00;2.20;;;;;;;23.92;17.80;100825.42;103484;1250;97982;-68
2023/05/12 09:44:05;;;;;;;6.30;2.20;;;;;;;23.75;18.04;100843.60;103455;1250;137863;-68
2023/05/12 09:46:32;;;;;;;7.10;2.50;;;;;;;23.87;18.10;100853.18;103407;1250;108907;-68
2023/05/12 09:49:01;;;;;;;6.40;2.50;;;;;;;23.92;17.90;100848.17;103511;1251;97790;-68
2023/05/12 09:51:29;;;;;;;12.80;2.70;;;;;;;23.95;17.93;100846.30;103394;1251;137864;-68
2023/05/12 09:53:56;;;;;;;5.60;2.10;;;;;;;23.91;17.73;100838.98;103471;1250;97685;-68
2023/05/12 09:56:25;;;;;;;8.70;2.20;;;;;;;23.78;17.92;100841.77;103341;1250;137811;-68
2023/05/12 09:58:53;;;;;;;9.30;2.30;;;;;;;23.81;17.98;100841.33;103444;1256;107698;-67
2023/05/12 10:01:21;;;;;;;4.30;2.40;;;;;;;23.91;18.02;100842.39;103465;1254;97806;-68
2023/05/12 10:03:51;;;;;;;10.30;2.60;;;;;;;23.90;18.08;100835.70;103369;1250;137665;-68
2023/05/12 10:06:25;;;;;;;7.40;2.30;;;;;;;24.02;18.46;100839.84;103476;1251;97644;-68
2023/05/12 10:08:56;;;;;;;10.40;2.20;;;;;;;24.27;18.33;100834.34;103431;1250;137603;-68
2023/05/12 10:11:24;;;;;;;9.30;2.40;;;;;;;24.41;18.00;100839.29;103499;1250;107718;-67
2023/05/12 10:13:52;;;;;;;6.00;2.10;;;;;;;24.38;17.87;100828.34;103623;1255;97756;-68
2023/05/12 10:16:20;;;;;;;7.40;2.40;;;;;;;24.47;18.00;100833.09;103472;1256;107443;-68
2023/05/12 10:18:48;;;;;;;11.00;2.70;;;;;;;24.36;18.25;100827.38;103483;1251;97791;-68
2023/05/12 10:21:16;;;;;;;7.70;2.20;;;;;;;24.32;17.87;100831.12;103384;1250;137843;-69
2023/05/12 10:23:44;;;;;;;4.90;1.90;;;;;;;23.97;17.57;100829.45;103432;1250;107668;-68
2023/05/12 10:26:12;;;;;;;8.60;1.90;;;;;;;23.55;17.78;100838.55;103394;1256;139513;-68
2023/05/12 10:28:39;;;;;;;9.30;2.20;;;;;;;23.25;18.36;100825.09;103480;1250;107345;-67
2023/05/12 10:31:08;;;;;;;8.90;2.20;;;;;;;23.21;18.67;100830.02;103538;1250;98066;-67
2023/05/12 10:33:35;;;;;;;5.90;2.10;;;;;;;23.11;18.94;100831.64;103746;1250;137676;-68
2023/05/12 10:36:03;;;;;;;6.60;2.30;;;;;;;23.13;19.13;100839.48;103406;1251;108154;-68
2023/05/12 10:38:38;;;;;;;5.40;1.90;;;;;;;23.03;18.83;100827.43;103342;1256;137920;-68
2023/05/12 10:41:07;;;;;;;9.70;2.30;;;;;;;22.73;18.75;100820.30;103467;1251;107031;-67
2023/05/12 10:43:40;;;;;;;9.70;2.30;;;;;;;22.58;19.19;100822.43;104091;1251;97817;-67
2023/05/12 10:46:19;;;;;;;8.50;2.50;;;;;;;22.55;18.92;100829.04;103624;1250;137562;-67
2023/05/12 10:48:55;;;;;;;11.70;2.40;;;;;;;22.70;19.13;100835.03;103713;1250;107094;-69
2023/05/12 10:51:23;;;;;;;3.40;2.10;;;;;;;22.47;18.56;100833.87;103491;1251;137957;-67
2023/05/12 10:53:55;;;;;;;5.40;2.00;;;;;;;22.10;18.77;100830.15;103536;1250;108303;-68
2023/05/12 10:56:27;;;;;;;8.10;2.30;;;;;;;21.95;19.09;100823.77;103751;1250;137973;-68
2023/05/12 10:59:15;;;;;;;8.80;2.40;;;;;;;21.83;18.93;100835.73;103968;1250;110937;-68
2023/05/12 11:01:55;;;;;;;8.50;2.40;;;;;;;21.69;19.13;100840.45;103970;1251;108650;-68
2023/05/12 11:04:24;;;;;;;6.60;2.60;;;;;;;21.52;19.27;100824.08;103526;1255;97946;-68
2023/05/12 11:06:59;;;;;;;8.80;2.60;;;;;;;21.36;19.57;100830.87;103477;1255;108827;-67
2023/05/12 11:09:27;;;;;;;3.00;2.00;;;;;;;21.30;19.41;100849.16;103378;1255;138365;-68
2023/05/12 11:11:55;;;;;;;5.70;1.90;;;;;;;21.18;19.48;100819.48;103526;1256;110373;-67
2023/05/12 11:14:22;;;;;;;9.20;2.80;;;;;;;21.17;20.33;100824.34;103349;1251;138317;-68
2023/05/12 11:16:50;;;;;;;16.90;2.70;;;;;;;21.19;20.64;100828.29;103573;1250;97787;-67